Time;durP1;ratioP1;P1;durP2;ratioP2;P2;SDS_P1;SDS_P2;PMS_P1;PMS_P2;Temp;Humidity;BMP_temperature;BMP_pressure;BME280_temperature;BME280_humidity;BME280_pressure;Samples;Min_cycle;Max_cycle;Signal;HPM_P1;HPM_P2
2022/04/08 00:01:28;;;;;;;;;;;5.90;99.90;;;;;;5036379;28;19971;-48
2022/04/08 00:03:53;;;;;;;;;;;5.80;99.90;;;;;;5036157;28;19925;-51
2022/04/08 00:06:19;;;;;;;;;;;5.80;99.90;;;;;;5018471;28;19947;-48
2022/04/08 00:08:46;;;;;;;;;;;5.80;99.90;;;;;;5036240;28;20272;-50
2022/04/08 00:11:12;;;;;;;;;;;5.70;99.90;;;;;;5036233;28;19925;-49
2022/04/08 00:13:37;;;;;;;;;;;5.70;99.90;;;;;;5036062;28;19948;-49
2022/04/08 00:16:03;;;;;;;;;;;5.70;99.90;;;;;;5035870;28;19925;-49
2022/04/08 00:18:29;;;;;;;;;;;5.70;99.90;;;;;;5035872;28;20020;-48
2022/04/08 00:20:55;;;;;;;;;;;5.70;99.90;;;;;;5036011;28;19925;-50
2022/04/08 00:23:21;;;;;;;;;;;5.70;99.90;;;;;;5035715;28;19925;-52
2022/04/08 00:25:46;;;;;;;;;;;5.70;99.90;;;;;;5035799;28;19929;-50
2022/04/08 00:28:12;;;;;;;;;;;5.80;99.90;;;;;;5035875;28;20007;-49
2022/04/08 00:30:37;;;;;;;;;;;5.80;99.90;;;;;;5017900;28;19925;-48
2022/04/08 00:33:03;;;;;;;;;;;5.80;99.90;;;;;;5035523;28;19971;-48
2022/04/08 00:35:28;;;;;;;;;;;5.80;99.90;;;;;;5017865;28;19933;-51
2022/04/08 00:37:54;;;;;;;;;;;5.80;99.90;;;;;;5035687;28;20012;-52
2022/04/08 00:40:19;;;;;;;;;;;5.70;99.90;;;;;;5035871;28;20371;-49
2022/04/08 00:42:44;;;;;;;;;;;5.70;99.90;;;;;;5035901;28;19985;-51
2022/04/08 00:45:10;;;;;;;;;;;5.70;99.90;;;;;;5035449;28;20456;-48
2022/04/08 00:47:37;;;;;;;;;;;5.70;99.90;;;;;;5035219;28;19925;-49
2022/04/08 00:50:03;;;;;;;;;;;5.70;99.90;;;;;;5035482;28;19935;-48
2022/04/08 00:52:30;;;;;;;;;;;5.70;99.90;;;;;;5017757;28;20391;-51
2022/04/08 00:54:55;;;;;;;;;;;5.60;99.90;;;;;;5017750;28;19925;-48
2022/04/08 00:57:21;;;;;;;;;;;5.60;99.90;;;;;;5035230;28;19979;-47
2022/04/08 00:59:47;;;;;;;;;;;5.50;99.90;;;;;;5017641;28;20011;-49
2022/04/08 01:02:13;;;;;;;;;;;5.40;99.90;;;;;;5034942;28;19925;-48
2022/04/08 01:04:38;;;;;;;;;;;5.40;99.90;;;;;;5035103;28;19994;-49
2022/04/08 01:07:04;;;;;;;;;;;5.20;99.90;;;;;;5035149;28;19929;-48
2022/04/08 01:09:29;;;;;;;;;;;5.10;99.90;;;;;;5034817;28;19932;-52
2022/04/08 01:11:55;;;;;;;;;;;5.10;99.90;;;;;;5034983;28;19921;-51
2022/04/08 01:14:21;;;;;;;;;;;5.00;99.90;;;;;;5034907;28;19999;-48
2022/04/08 01:16:46;;;;;;;;;;;5.00;99.90;;;;;;5017144;28;19929;-53
2022/04/08 01:19:12;;;;;;;;;;;5.00;99.90;;;;;;5017402;28;19947;-51
2022/04/08 01:21:37;;;;;;;;;;;5.00;99.90;;;;;;5034958;28;19932;-50
2022/04/08 01:24:03;;;;;;;;;;;4.90;99.90;;;;;;5034754;28;20059;-47
2022/04/08 01:26:29;;;;;;;;;;;5.00;99.90;;;;;;5035003;28;19925;-48
2022/04/08 01:28:55;;;;;;;;;;;5.00;99.90;;;;;;5034683;28;19932;-47
2022/04/08 01:31:23;;;;;;;;;;;4.90;99.90;;;;;;5034578;28;19972;-47
2022/04/08 01:33:52;;;;;;;;;;;4.90;99.90;;;;;;5034161;28;20346;-49
2022/04/08 01:36:17;;;;;;;;;;;4.90;99.90;;;;;;5034453;28;19932;-47
2022/04/08 01:38:43;;;;;;;;;;;4.80;99.90;;;;;;5034523;28;19925;-47
2022/04/08 01:41:08;;;;;;;;;;;4.80;99.90;;;;;;5034398;28;20273;-48
2022/04/08 01:43:34;;;;;;;;;;;4.80;99.90;;;;;;5034550;28;19964;-48
2022/04/08 01:46:00;;;;;;;;;;;;;;;;;;5034153;28;19925;-47
2022/04/08 01:48:25;;;;;;;;;;;4.60;99.90;;;;;;5016642;28;20438;-47
2022/04/08 01:50:51;;;;;;;;;;;4.50;99.90;;;;;;5057820;22;19932;-84
2022/04/08 01:53:17;;;;;;;;;;;4.40;99.90;;;;;;5011522;28;20024;-84
2022/04/08 01:55:43;;;;;;;;;;;4.40;99.90;;;;;;5021445;28;20318;-85
2022/04/08 01:58:10;;;;;;;;;;;4.30;99.90;;;;;;5032640;28;19971;-85
2022/04/08 02:00:36;;;;;;;;;;;4.30;99.90;;;;;;5014976;28;20145;-85
2022/04/08 02:03:03;;;;;;;;;;;4.30;99.90;;;;;;5032756;28;21282;-84
2022/04/08 02:05:28;;;;;;;;;;;4.30;99.90;;;;;;5032214;28;20304;-85
2022/04/08 02:07:54;;;;;;;;;;;4.20;99.90;;;;;;5009984;28;19980;-84
2022/04/08 02:10:20;;;;;;;;;;;4.20;99.90;;;;;;4995078;28;19925;-84
2022/04/08 02:12:45;;;;;;;;;;;4.20;99.90;;;;;;5012754;28;19972;-85
2022/04/08 02:15:11;;;;;;;;;;;4.10;99.90;;;;;;5012435;28;20382;-85
2022/04/08 02:17:37;;;;;;;;;;;4.00;99.90;;;;;;5012745;28;19932;-85
2022/04/08 02:20:04;;;;;;;;;;;3.90;99.90;;;;;;5012103;28;19932;-85
2022/04/08 02:22:30;;;;;;;;;;;3.80;99.90;;;;;;5011101;28;20016;-85
2022/04/08 02:24:56;;;;;;;;;;;3.70;99.90;;;;;;4983182;28;20016;-83
2022/04/08 02:27:23;;;;;;;;;;;3.70;99.90;;;;;;5014139;28;19925;-83
2022/04/08 02:29:49;;;;;;;;;;;3.70;99.90;;;;;;5014257;28;20587;-83
2022/04/08 02:32:14;;;;;;;;;;;3.60;99.90;;;;;;5013998;28;19932;-83
2022/04/08 02:34:40;;;;;;;;;;;3.60;99.90;;;;;;5013798;28;19926;-84
2022/04/08 02:37:06;;;;;;;;;;;3.60;99.90;;;;;;5014136;28;19925;-84
2022/04/08 02:39:31;;;;;;;;;;;3.50;99.90;;;;;;5014253;28;19925;-83
2022/04/08 02:41:57;;;;;;;;;;;3.50;99.90;;;;;;5014044;28;20032;-84
2022/04/08 02:44:23;;;;;;;;;;;3.60;99.90;;;;;;4997529;28;19936;-83
2022/04/08 02:46:48;;;;;;;;;;;3.50;99.90;;;;;;5030619;28;19948;-83
2022/04/08 02:49:14;;;;;;;;;;;3.60;99.90;;;;;;5014037;28;19933;-84
2022/04/08 02:51:39;;;;;;;;;;;3.60;99.90;;;;;;5024531;28;19926;-83
2022/04/08 02:54:05;;;;;;;;;;;3.60;99.90;;;;;;5030441;28;19925;-84
2022/04/08 02:56:30;;;;;;;;;;;3.70;99.90;;;;;;5030309;28;19925;-83
2022/04/08 02:58:57;;;;;;;;;;;3.80;99.90;;;;;;5028080;28;19977;-83
2022/04/08 03:01:23;;;;;;;;;;;3.90;99.90;;;;;;5011602;28;19925;-83
2022/04/08 03:03:48;;;;;;;;;;;4.00;99.90;;;;;;5011979;28;19932;-83
2022/04/08 03:06:14;;;;;;;;;;;3.90;99.90;;;;;;5011689;28;19929;-82
2022/04/08 03:08:39;;;;;;;;;;;3.80;99.90;;;;;;5011778;28;20024;-83
2022/04/08 03:11:05;;;;;;;;;;;3.80;99.90;;;;;;5011804;28;20391;-83
2022/04/08 03:13:31;;;;;;;;;;;3.80;99.90;;;;;;5010295;28;20268;-83
2022/04/08 03:15:57;;;;;;;;;;;3.70;99.90;;;;;;5011369;28;20066;-83
2022/04/08 03:18:22;;;;;;;;;;;3.80;99.90;;;;;;5010319;28;20403;-83
2022/04/08 03:20:48;;;;;;;;;;;3.70;99.90;;;;;;5011592;28;20283;-83
2022/04/08 03:23:13;;;;;;;;;;;3.70;99.90;;;;;;5010776;28;19952;-83
2022/04/08 03:25:39;;;;;;;;;;;3.70;99.90;;;;;;5011518;28;19925;-83
2022/04/08 03:28:04;;;;;;;;;;;3.70;99.90;;;;;;5011500;28;20374;-83
2022/04/08 03:30:31;;;;;;;;;;;3.70;99.90;;;;;;5009816;28;19992;-83
2022/04/08 03:32:57;;;;;;;;;;;3.70;99.90;;;;;;5011619;28;19976;-83
2022/04/08 03:35:22;;;;;;;;;;;3.70;99.90;;;;;;5011489;28;19973;-83
2022/04/08 03:37:48;;;;;;;;;;;3.70;99.90;;;;;;5011656;28;19926;-83
2022/04/08 03:40:14;;;;;;;;;;;3.80;99.90;;;;;;5011626;28;20294;-83
2022/04/08 03:42:39;;;;;;;;;;;3.80;99.90;;;;;;5011410;28;20177;-83
2022/04/08 03:45:05;;;;;;;;;;;3.80;99.90;;;;;;4993500;28;19925;-83
2022/04/08 03:47:31;;;;;;;;;;;3.80;99.90;;;;;;5011565;28;19928;-83
2022/04/08 03:49:57;;;;;;;;;;;3.90;99.90;;;;;;5011372;28;19925;-83
2022/04/08 03:52:23;;;;;;;;;;;3.90;99.90;;;;;;5010022;28;19965;-83
2022/04/08 03:54:48;;;;;;;;;;;3.90;99.90;;;;;;5011215;28;20350;-83
2022/04/08 03:57:14;;;;;;;;;;;4.00;99.90;;;;;;4994754;28;20331;-83
2022/04/08 03:59:39;;;;;;;;;;;4.00;99.90;;;;;;4997129;28;20020;-83
2022/04/08 04:02:05;;;;;;;;;;;4.00;99.90;;;;;;4997249;28;20389;-83
2022/04/08 04:04:31;;;;;;;;;;;4.00;99.90;;;;;;4997503;28;19926;-83
2022/04/08 04:06:57;;;;;;;;;;;4.00;99.90;;;;;;4997644;28;20327;-83
2022/04/08 04:09:22;;;;;;;;;;;4.00;99.90;;;;;;5013390;28;20010;-83
2022/04/08 04:11:48;;;;;;;;;;;3.90;99.90;;;;;;5014470;28;19933;-83
2022/04/08 04:14:13;;;;;;;;;;;3.90;99.90;;;;;;5014211;28;19975;-83
2022/04/08 04:16:39;;;;;;;;;;;3.90;99.90;;;;;;5014657;28;20363;-83
2022/04/08 04:19:04;;;;;;;;;;;3.90;99.90;;;;;;5013493;28;19925;-83
2022/04/08 04:21:30;;;;;;;;;;;3.80;99.90;;;;;;4996580;28;20297;-83
2022/04/08 04:23:55;;;;;;;;;;;3.80;99.90;;;;;;5014434;28;19926;-83
2022/04/08 04:26:21;;;;;;;;;;;3.80;99.90;;;;;;5014261;28;19925;-83
2022/04/08 04:28:46;;;;;;;;;;;3.70;99.90;;;;;;5014117;28;19932;-83
2022/04/08 04:31:12;;;;;;;;;;;3.60;99.90;;;;;;5012998;28;20437;-83
2022/04/08 04:33:37;;;;;;;;;;;3.60;99.90;;;;;;4996549;28;20306;-83
2022/04/08 04:36:03;;;;;;;;;;;3.50;99.90;;;;;;5014036;28;19925;-83
2022/04/08 04:38:28;;;;;;;;;;;3.40;99.90;;;;;;4980229;28;19969;-83
2022/04/08 04:40:54;;;;;;;;;;;3.40;99.90;;;;;;4996520;28;19983;-83
2022/04/08 04:43:19;;;;;;;;;;;3.40;99.90;;;;;;5013876;28;19979;-83
2022/04/08 04:45:45;;;;;;;;;;;3.30;99.90;;;;;;5012974;28;19925;-83
2022/04/08 04:48:11;;;;;;;;;;;3.40;99.90;;;;;;4996487;28;19933;-83
2022/04/08 04:50:39;;;;;;;;;;;3.40;99.90;;;;;;5013564;28;19925;-83
2022/04/08 04:53:06;;;;;;;;;;;3.30;99.90;;;;;;5014356;28;19926;-83
2022/04/08 04:55:31;;;;;;;;;;;3.30;99.90;;;;;;4996059;28;20023;-83
2022/04/08 04:57:57;;;;;;;;;;;3.20;99.90;;;;;;5013577;28;20257;-84
2022/04/08 05:00:22;;;;;;;;;;;3.30;99.90;;;;;;4979884;28;19925;-83
2022/04/08 05:02:48;;;;;;;;;;;3.40;99.90;;;;;;5013756;28;20361;-83
2022/04/08 05:05:14;;;;;;;;;;;3.40;99.90;;;;;;5013462;28;20398;-83
2022/04/08 05:07:40;;;;;;;;;;;3.40;99.90;;;;;;5012271;28;19926;-83
2022/04/08 05:10:06;;;;;;;;;;;3.30;99.90;;;;;;5012576;28;19972;-83
2022/04/08 05:12:32;;;;;;;;;;;3.20;99.90;;;;;;5011678;28;19926;-83
2022/04/08 05:14:58;;;;;;;;;;;3.20;99.90;;;;;;5013360;28;20264;-83
2022/04/08 05:17:23;;;;;;;;;;;3.10;99.90;;;;;;5012075;28;20019;-83
2022/04/08 05:19:49;;;;;;;;;;;3.20;99.90;;;;;;5013457;28;20076;-83
2022/04/08 05:22:14;;;;;;;;;;;3.20;99.90;;;;;;5012189;28;19979;-83
2022/04/08 05:24:40;;;;;;;;;;;3.40;99.90;;;;;;4995455;28;19926;-83
2022/04/08 05:27:06;;;;;;;;;;;3.50;99.90;;;;;;4995268;28;19928;-83
2022/04/08 05:29:32;;;;;;;;;;;3.50;99.90;;;;;;4995588;28;19933;-83
2022/04/08 05:31:57;;;;;;;;;;;3.50;99.90;;;;;;5011900;28;19925;-83
2022/04/08 05:34:23;;;;;;;;;;;3.50;99.90;;;;;;5012844;28;20305;-83
2022/04/08 05:36:48;;;;;;;;;;;3.60;99.90;;;;;;5011715;28;19929;-83
2022/04/08 05:39:14;;;;;;;;;;;3.60;99.90;;;;;;5012992;28;19929;-83
2022/04/08 05:41:39;;;;;;;;;;;3.60;99.90;;;;;;4994838;28;19925;-83
2022/04/08 05:44:05;;;;;;;;;;;3.70;99.90;;;;;;5013157;28;19932;-83
2022/04/08 05:46:30;;;;;;;;;;;3.70;99.90;;;;;;4995118;28;20291;-83
2022/04/08 05:48:56;;;;;;;;;;;3.70;99.90;;;;;;4995317;28;19940;-83
2022/04/08 05:51:21;;;;;;;;;;;3.70;99.90;;;;;;5003400;28;19925;-83
2022/04/08 05:53:47;;;;;;;;;;;3.60;99.90;;;;;;5011747;28;19925;-82
2022/04/08 05:56:12;;;;;;;;;;;3.50;99.90;;;;;;4994574;28;20375;-83
2022/04/08 05:58:38;;;;;;;;;;;3.40;99.90;;;;;;5011376;28;19948;-83
2022/04/08 06:01:03;;;;;;;;;;;3.30;99.90;;;;;;5011579;28;19929;-83
2022/04/08 06:03:29;;;;;;;;;;;3.30;99.90;;;;;;4994855;28;19976;-83
2022/04/08 06:05:54;;;;;;;;;;;3.20;99.90;;;;;;5011487;28;19948;-82
2022/04/08 06:08:20;;;;;;;;;;;3.20;99.90;;;;;;5012460;28;19925;-83
2022/04/08 06:10:45;;;;;;;;;;;3.20;99.90;;;;;;5012165;28;19933;-83
2022/04/08 06:13:11;;;;;;;;;;;3.20;99.90;;;;;;5011470;28;19973;-82
2022/04/08 06:15:36;;;;;;;;;;;3.20;99.90;;;;;;5010941;28;19933;-82
2022/04/08 06:18:02;;;;;;;;;;;3.20;99.90;;;;;;5010931;28;19972;-82
2022/04/08 06:20:28;;;;;;;;;;;3.20;99.90;;;;;;5010645;28;19926;-82
2022/04/08 06:22:54;;;;;;;;;;;3.10;99.90;;;;;;5010934;28;19936;-82
2022/04/08 06:25:20;;;;;;;;;;;3.10;99.90;;;;;;5010541;28;20291;-82
2022/04/08 06:28:02;;;;;;;;;;;3.00;99.90;;;;;;5010767;28;20016;-82
2022/04/08 06:30:28;;;;;;;;;;;2.90;99.90;;;;;;5010881;28;20020;-82
2022/04/08 06:32:53;;;;;;;;;;;2.90;99.90;;;;;;5010869;28;20115;-82
2022/04/08 06:35:19;;;;;;;;;;;2.80;99.90;;;;;;5010622;28;19925;-82
2022/04/08 06:37:45;;;;;;;;;;;2.70;99.90;;;;;;4994341;28;19925;-83
2022/04/08 06:40:10;;;;;;;;;;;2.70;99.90;;;;;;5010265;28;19926;-83
2022/04/08 06:42:37;;;;;;;;;;;2.60;99.90;;;;;;5010898;28;20286;-83
2022/04/08 06:45:03;;;;;;;;;;;2.50;99.90;;;;;;5010680;28;19929;-83
2022/04/08 06:47:28;;;;;;;;;;;2.60;99.90;;;;;;4994095;28;19980;-83
2022/04/08 06:49:54;;;;;;;;;;;2.60;99.90;;;;;;5010440;28;20334;-83
2022/04/08 06:52:20;;;;;;;;;;;2.70;99.90;;;;;;5010670;28;20020;-83
2022/04/08 06:54:45;;;;;;;;;;;2.70;99.90;;;;;;5009923;28;19925;-84
2022/04/08 06:57:10;;;;;;;;;;;2.80;99.90;;;;;;4994123;28;19925;-84
2022/04/08 06:59:36;;;;;;;;;;;2.90;99.90;;;;;;4994370;28;20035;-84
2022/04/08 07:02:02;;;;;;;;;;;3.10;99.90;;;;;;5010798;28;19975;-84
2022/04/08 07:04:28;;;;;;;;;;;4.80;99.90;;;;;;5010282;28;20357;-82
2022/04/08 07:06:53;;;;;;;;;;;4.90;99.90;;;;;;5011694;28;19973;-82
2022/04/08 07:09:19;;;;;;;;;;;5.20;99.90;;;;;;5011456;28;20374;-83
2022/04/08 07:11:46;;;;;;;;;;;5.00;99.90;;;;;;5011772;28;19972;-82
2022/04/08 07:14:12;;;;;;;;;;;4.80;99.90;;;;;;5010310;28;20409;-82
2022/04/08 07:16:38;;;;;;;;;;;4.50;99.90;;;;;;5010331;28;20261;-82
2022/04/08 07:19:03;;;;;;;;;;;4.50;99.90;;;;;;5011605;28;20393;-83
2022/04/08 07:21:28;;;;;;;;;;;4.50;99.90;;;;;;4977641;28;20350;-83
2022/04/08 07:23:54;;;;;;;;;;;4.50;99.90;;;;;;4993551;28;20020;-83
2022/04/08 07:26:21;;;;;;;;;;;4.50;99.90;;;;;;5011749;28;19933;-83
2022/04/08 07:28:46;;;;;;;;;;;4.60;99.90;;;;;;5010535;28;20382;-83
2022/04/08 07:31:12;;;;;;;;;;;4.60;99.90;;;;;;5010501;28;19972;-83
2022/04/08 07:33:38;;;;;;;;;;;4.60;99.90;;;;;;5013488;28;19925;-83
2022/04/08 07:36:04;;;;;;;;;;;4.70;99.90;;;;;;5013933;28;19936;-83
2022/04/08 07:38:30;;;;;;;;;;;4.90;99.90;;;;;;5013532;28;19925;-83
2022/04/08 07:40:57;;;;;;;;;;;5.20;99.90;;;;;;5014194;28;19926;-84
2022/04/08 07:43:23;;;;;;;;;;;5.60;99.90;;;;;;5014096;28;19925;-84
2022/04/08 07:45:48;;;;;;;;;;;5.80;99.90;;;;;;5013948;28;19926;-83
2022/04/08 07:48:14;;;;;;;;;;;6.10;99.90;;;;;;4997464;28;19952;-83
2022/04/08 07:50:40;;;;;;;;;;;6.30;99.90;;;;;;5014795;28;20019;-83
2022/04/08 07:53:06;;;;;;;;;;;6.30;99.90;;;;;;5013633;28;19949;-83
2022/04/08 07:55:32;;;;;;;;;;;6.20;99.90;;;;;;4997414;28;20028;-84
2022/04/08 07:57:57;;;;;;;;;;;6.40;99.90;;;;;;4997554;28;20417;-83
2022/04/08 08:00:27;;;;;;;;;;;6.90;99.90;;;;;;4997162;28;19926;-84
2022/04/08 08:02:52;;;;;;;;;;;7.20;99.90;;;;;;5014826;28;20345;-84
2022/04/08 08:05:18;;;;;;;;;;;7.30;99.90;;;;;;4997211;28;19926;-84
2022/04/08 08:07:47;;;;;;;;;;;7.30;99.90;;;;;;4996933;28;19930;-84
2022/04/08 08:10:16;;;;;;;;;;;7.40;99.90;;;;;;4996976;28;19925;-84
2022/04/08 08:12:42;;;;;;;;;;;7.40;99.90;;;;;;4997186;28;20016;-84
2022/04/08 08:15:08;;;;;;;;;;;7.50;99.90;;;;;;4996904;28;20021;-84
2022/04/08 08:17:33;;;;;;;;;;;7.50;99.90;;;;;;4996811;28;20339;-84
2022/04/08 08:19:59;;;;;;;;;;;7.50;99.90;;;;;;4997045;28;19948;-84
2022/04/08 08:22:24;;;;;;;;;;;7.60;99.90;;;;;;5012896;28;19930;-84
2022/04/08 08:24:49;;;;;;;;;;;7.50;99.90;;;;;;4996824;28;19975;-84
2022/04/08 08:27:15;;;;;;;;;;;7.40;99.90;;;;;;5014453;28;19926;-83
2022/04/08 08:29:41;;;;;;;;;;;7.50;99.90;;;;;;5013289;28;20056;-84
2022/04/08 08:32:06;;;;;;;;;;;7.50;99.90;;;;;;4996687;28;19965;-84
2022/04/08 08:34:32;;;;;;;;;;;7.50;99.90;;;;;;4996261;28;19925;-84
2022/04/08 08:36:59;;;;;;;;;;;7.40;99.90;;;;;;4996140;28;19932;-84
2022/04/08 08:39:28;;;;;;;;;;;7.40;99.90;;;;;;4996839;28;19925;-84
2022/04/08 08:41:55;;;;;;;;;;;7.40;99.90;;;;;;4996394;28;19929;-84
2022/04/08 08:44:20;;;;;;;;;;;7.30;99.90;;;;;;4995380;28;20263;-84
2022/04/08 08:46:47;;;;;;;;;;;7.30;99.90;;;;;;5012667;28;19932;-84
2022/04/08 08:49:14;;;;;;;;;;;7.40;99.90;;;;;;5014032;28;19925;-84
2022/04/08 08:51:41;;;;;;;;;;;7.40;99.90;;;;;;5006933;28;19984;-84
2022/04/08 08:54:07;;;;;;;;;;;7.30;99.90;;;;;;5012583;28;19925;-84
2022/04/08 08:56:32;;;;;;;;;;;7.00;99.90;;;;;;5014114;28;19925;-84
2022/04/08 08:58:57;;;;;;;;;;;6.90;99.90;;;;;;5012693;28;19925;-84
2022/04/08 09:01:23;;;;;;;;;;;6.50;99.90;;;;;;5012719;28;19931;-84
2022/04/08 09:03:48;;;;;;;;;;;6.30;99.90;;;;;;5012236;28;19933;-83
2022/04/08 09:06:16;;;;;;;;;;;6.30;99.90;;;;;;5013424;28;19936;-83
2022/04/08 09:08:42;;;;;;;;;;;6.10;99.90;;;;;;5012389;28;20436;-84
2022/04/08 09:11:07;;;;;;;;;;;6.10;99.90;;;;;;5012342;28;20400;-84
2022/04/08 09:13:44;;;;;;;;;;;6.00;99.90;;;;;;5012370;28;20016;-84
2022/04/08 09:16:09;;;;;;;;;;;5.80;99.90;;;;;;5012244;28;20378;-84
2022/04/08 09:18:36;;;;;;;;;;;5.30;99.90;;;;;;5011901;28;19974;-83
2022/04/08 09:21:02;;;;;;;;;;;5.30;99.90;;;;;;5012252;28;19950;-84
2022/04/08 09:23:28;;;;;;;;;;;5.50;99.90;;;;;;5012364;28;20052;-84
2022/04/08 09:26:00;;;;;;;;;;;5.60;99.90;;;;;;5013436;28;19933;-84
2022/04/08 09:28:31;;;;;;;;;;;5.70;99.90;;;;;;5011755;28;20071;-84
2022/04/08 09:30:57;;;;;;;;;;;6.00;99.90;;;;;;5012330;28;20164;-83
2022/04/08 09:33:25;;;;;;;;;;;6.20;99.90;;;;;;5011663;28;20478;-83
2022/04/08 09:35:53;;;;;;;;;;;6.70;99.90;;;;;;5011630;28;20297;-84
2022/04/08 09:38:20;;;;;;;;;;;7.10;99.90;;;;;;5011993;28;19925;-84
2022/04/08 09:40:47;;;;;;;;;;;7.30;99.90;;;;;;4995289;28;20414;-84
2022/04/08 09:43:13;;;;;;;;;;;7.60;99.90;;;;;;5011758;28;19925;-84
2022/04/08 09:45:39;;;;;;;;;;;7.90;99.90;;;;;;5011609;28;20359;-84
2022/04/08 09:48:05;;;;;;;;;;;8.20;99.90;;;;;;5011153;28;19929;-84
2022/04/08 09:50:31;;;;;;;;;;;8.40;99.90;;;;;;4995068;28;19931;-83
2022/04/08 09:52:56;;;;;;;;;;;8.80;99.90;;;;;;5012712;28;19926;-83
2022/04/08 09:55:23;;;;;;;;;;;9.00;99.90;;;;;;4994770;28;20367;-84
2022/04/08 09:57:56;;;;;;;;;;;9.00;99.90;;;;;;5011704;28;19925;-84
2022/04/08 10:00:21;;;;;;;;;;;9.10;99.90;;;;;;4995228;28;19988;-83
2022/04/08 10:02:48;;;;;;;;;;;9.20;99.90;;;;;;4994518;28;19929;-84
2022/04/08 10:05:13;;;;;;;;;;;9.30;99.90;;;;;;5012475;28;19926;-84
2022/04/08 10:07:40;;;;;;;;;;;9.30;99.90;;;;;;5011571;28;20329;-84
2022/04/08 10:10:18;;;;;;;;;;;9.40;99.90;;;;;;4995083;28;19932;-84
2022/04/08 10:12:54;;;;;;;;;;;9.50;99.90;;;;;;5011361;28;19925;-84
2022/04/08 10:15:26;;;;;;;;;;;9.60;99.90;;;;;;5011188;28;20283;-84
2022/04/08 10:17:57;;;;;;;;;;;9.70;99.90;;;;;;5010771;28;20330;-84
2022/04/08 10:20:22;;;;;;;;;;;9.50;99.90;;;;;;5010937;28;19971;-84
2022/04/08 10:22:48;;;;;;;;;;;9.50;99.90;;;;;;5012360;28;19930;-84
2022/04/08 10:25:18;;;;;;;;;;;9.60;99.90;;;;;;5011423;28;19925;-84
2022/04/08 10:27:44;;;;;;;;;;;9.70;99.90;;;;;;4994507;28;19925;-84
2022/04/08 10:30:21;;;;;;;;;;;9.60;99.90;;;;;;5012268;28;19926;-84
2022/04/08 10:32:47;;;;;;;;;;;9.50;99.90;;;;;;5011772;28;19925;-84
2022/04/08 10:35:19;;;;;;;;;;;9.70;99.90;;;;;;5010449;28;20290;-84
2022/04/08 10:37:58;;;;;;;;;;;9.90;99.90;;;;;;5012104;28;19933;-84
2022/04/08 10:40:36;;;;;;;;;;;10.00;99.90;;;;;;5010820;28;19926;-84
2022/04/08 10:43:03;;;;;;;;;;;10.10;99.90;;;;;;5010778;28;19936;-85
2022/04/08 10:45:29;;;;;;;;;;;10.20;99.90;;;;;;5010265;28;20129;-85
2022/04/08 10:47:56;;;;;;;;;;;10.40;99.90;;;;;;5011940;28;20382;-85
2022/04/08 10:50:29;;;;;;;;;;;10.30;99.90;;;;;;5010619;28;19926;-85
2022/04/08 10:53:07;;;;;;;;;;;10.40;99.90;;;;;;5010708;28;19929;-85
2022/04/08 10:55:46;;;;;;;;;;;10.60;99.90;;;;;;5011832;28;19925;-85
2022/04/08 10:58:13;;;;;;;;;;;10.80;99.90;;;;;;5012146;28;19925;-85
2022/04/08 11:00:39;;;;;;;;;;;10.90;99.90;;;;;;5010241;28;19932;-86
2022/04/08 11:03:05;;;;;;;;;;;10.90;99.90;;;;;;5010611;28;19960;-85
2022/04/08 11:05:35;;;;;;;;;;;11.10;99.90;;;;;;4994201;28;20012;-85
2022/04/08 11:08:00;;;;;;;;;;;11.10;99.90;;;;;;5013316;28;19925;-85
2022/04/08 11:10:27;;;;;;;;;;;11.00;99.90;;;;;;5014556;28;19932;-85
2022/04/08 11:12:56;;;;;;;;;;;11.00;99.90;;;;;;5014891;28;20370;-85
2022/04/08 11:15:27;;;;;;;;;;;11.00;99.90;;;;;;5015427;28;19926;-85
2022/04/08 11:17:53;;;;;;;;;;;11.00;99.90;;;;;;5015847;28;19926;-85
2022/04/08 11:20:20;;;;;;;;;;;10.90;99.90;;;;;;5014351;28;20283;-85
2022/04/08 11:22:48;;;;;;;;;;;11.00;99.90;;;;;;5014326;28;20351;-85
2022/04/08 11:25:23;;;;;;;;;;;10.90;99.90;;;;;;5014545;28;20279;-85
2022/04/08 11:28:06;;;;;;;;;;;10.90;99.90;;;;;;5014217;28;19926;-85
2022/04/08 11:30:33;;;;;;;;;;;11.00;99.90;;;;;;4997382;28;20386;-85
2022/04/08 11:32:58;;;;;;;;;;;11.30;99.90;;;;;;5014272;28;20379;-85
2022/04/08 11:35:28;;;;;;;;;;;11.10;99.90;;;;;;5015157;28;19925;-86
2022/04/08 11:37:53;;;;;;;;;;;11.10;99.90;;;;;;5014079;28;19980;-85
2022/04/08 11:40:18;;;;;;;;;;;11.10;99.90;;;;;;5015454;28;19925;-85
2022/04/08 11:42:45;;;;;;;;;;;11.00;99.90;;;;;;5015427;28;19929;-85
2022/04/08 11:45:11;;;;;;;;;;;10.90;99.90;;;;;;5013731;28;19925;-85
2022/04/08 11:47:40;;;;;;;;;;;10.80;99.90;;;;;;5014167;28;19948;-85
2022/04/08 11:50:09;;;;;;;;;;;10.70;99.90;;;;;;5013771;28;20023;-85
2022/04/08 11:52:36;;;;;;;;;;;10.70;99.90;;;;;;4997601;28;19980;-85
2022/04/08 11:55:03;;;;;;;;;;;10.70;99.90;;;;;;5013654;28;19926;-85
2022/04/08 11:57:30;;;;;;;;;;;10.90;99.90;;;;;;4997508;28;19932;-86
2022/04/08 11:59:55;;;;;;;;;;;11.00;99.90;;;;;;4980891;28;20039;-85
2022/04/08 12:02:21;;;;;;;;;;;11.10;99.90;;;;;;4997610;28;20386;-86
2022/04/08 12:04:49;;;;;;;;;;;11.10;99.90;;;;;;5014569;28;19932;-86
2022/04/08 12:07:28;;;;;;;;;;;11.20;99.90;;;;;;5014952;28;19940;-86
2022/04/08 12:09:54;;;;;;;;;;;11.10;99.90;;;;;;4997135;28;19987;-86
2022/04/08 12:12:28;;;;;;;;;;;11.10;99.90;;;;;;4996789;28;19926;-86
2022/04/08 12:14:54;;;;;;;;;;;11.30;99.90;;;;;;4997139;28;19949;-85
2022/04/08 12:17:20;;;;;;;;;;;11.40;99.90;;;;;;4997128;28;20513;-85
2022/04/08 12:19:48;;;;;;;;;;;11.10;99.90;;;;;;5014195;28;20039;-85
2022/04/08 12:22:14;;;;;;;;;;;10.80;99.90;;;;;;4997052;28;20146;-85
2022/04/08 12:24:41;;;;;;;;;;;10.40;99.90;;;;;;4980508;28;19933;-86
2022/04/08 12:27:10;;;;;;;;;;;9.90;99.90;;;;;;5014096;28;19926;-85
2022/04/08 12:29:39;;;;;;;;;;;9.50;99.90;;;;;;5013190;28;20026;-85
2022/04/08 12:32:11;;;;;;;;;;;9.30;99.90;;;;;;5013497;28;20400;-85
2022/04/08 12:34:36;;;;;;;;;;;9.00;99.90;;;;;;5017519;28;19925;-86
2022/04/08 12:37:02;;;;;;;;;;;8.90;99.90;;;;;;5030523;28;19926;-85
2022/04/08 12:39:27;;;;;;;;;;;8.90;99.90;;;;;;4980726;28;19925;-85
2022/04/08 12:41:57;;;;;;;;;;;8.80;99.90;;;;;;4996218;28;19925;-85
2022/04/08 12:44:23;;;;;;;;;;;8.70;99.90;;;;;;5014122;28;19932;-85
2022/04/08 12:46:49;;;;;;;;;;;8.80;99.90;;;;;;4996608;28;19925;-85
2022/04/08 12:49:15;;;;;;;;;;;8.80;99.90;;;;;;5014208;28;19936;-85
2022/04/08 12:51:40;;;;;;;;;;;9.00;99.90;;;;;;5007215;28;19925;-85
2022/04/08 12:54:06;;;;;;;;;;;9.30;99.90;;;;;;5013802;28;19926;-85
2022/04/08 12:56:31;;;;;;;;;;;9.60;99.90;;;;;;4995885;28;19925;-86
2022/04/08 12:58:58;;;;;;;;;;;9.70;99.90;;;;;;5012572;28;19926;-85
2022/04/08 13:01:23;;;;;;;;;;;9.80;99.90;;;;;;5012694;28;19926;-85
2022/04/08 13:03:49;;;;;;;;;;;10.10;99.90;;;;;;5012616;28;20287;-85
2022/04/08 13:06:14;;;;;;;;;;;10.40;99.90;;;;;;5013808;28;19930;-85
2022/04/08 13:08:40;;;;;;;;;;;10.60;99.90;;;;;;5012419;28;20413;-85
2022/04/08 13:11:07;;;;;;;;;;;10.70;99.90;;;;;;5011814;28;19929;-85
2022/04/08 13:13:33;;;;;;;;;;;10.70;99.90;;;;;;4995990;28;20382;-85
2022/04/08 13:15:58;;;;;;;;;;;10.60;99.90;;;;;;5012297;28;19933;-85
2022/04/08 13:18:24;;;;;;;;;;;10.60;99.90;;;;;;5012149;28;20442;-85
2022/04/08 13:20:49;;;;;;;;;;;10.50;99.90;;;;;;5012178;28;19948;-85
2022/04/08 13:23:15;;;;;;;;;;;10.40;99.90;;;;;;5012321;28;19972;-85
2022/04/08 13:25:41;;;;;;;;;;;10.40;99.90;;;;;;5012888;28;19945;-85
2022/04/08 13:28:08;;;;;;;;;;;10.50;99.90;;;;;;5013272;28;20024;-85
2022/04/08 13:30:34;;;;;;;;;;;10.40;99.90;;;;;;5011495;28;20079;-85
2022/04/08 13:32:59;;;;;;;;;;;10.40;99.90;;;;;;5013295;28;19985;-85
2022/04/08 13:35:24;;;;;;;;;;;10.50;99.90;;;;;;5012049;28;19968;-85
2022/04/08 13:37:51;;;;;;;;;;;10.50;99.90;;;;;;5011894;28;19925;-85
2022/04/08 13:40:17;;;;;;;;;;;10.60;99.90;;;;;;5011509;28;20389;-85
2022/04/08 13:42:42;;;;;;;;;;;10.70;99.90;;;;;;5011643;28;20012;-85
2022/04/08 13:45:08;;;;;;;;;;;10.50;99.90;;;;;;5011809;28;20362;-85
2022/04/08 13:47:34;;;;;;;;;;;10.70;99.90;;;;;;5011527;28;19925;-85
2022/04/08 13:50:00;;;;;;;;;;;10.80;99.90;;;;;;5011510;28;20056;-85
2022/04/08 13:52:26;;;;;;;;;;;10.80;99.90;;;;;;4995717;28;19968;-85
2022/04/08 13:54:52;;;;;;;;;;;10.80;99.90;;;;;;5012726;28;20359;-86
2022/04/08 13:57:19;;;;;;;;;;;11.00;99.90;;;;;;4995191;28;20021;-85
2022/04/08 13:59:44;;;;;;;;;;;11.00;99.90;;;;;;4995276;28;20008;-85
2022/04/08 14:02:14;;;;;;;;;;;11.00;99.90;;;;;;4995186;28;20378;-85
2022/04/08 14:04:40;;;;;;;;;;;10.90;99.90;;;;;;4994944;28;19926;-85
2022/04/08 14:07:06;;;;;;;;;;;10.90;99.90;;;;;;4979168;28;19948;-85
2022/04/08 14:09:32;;;;;;;;;;;10.70;99.90;;;;;;5012149;28;20374;-85
2022/04/08 14:11:57;;;;;;;;;;;10.60;99.90;;;;;;4994905;28;19926;-85
2022/04/08 14:14:23;;;;;;;;;;;10.70;99.90;;;;;;4994831;28;19925;-85
2022/04/08 14:16:48;;;;;;;;;;;10.60;99.90;;;;;;5012482;28;19925;-85
2022/04/08 14:19:14;;;;;;;;;;;10.70;99.90;;;;;;4994742;28;20007;-85
2022/04/08 14:21:39;;;;;;;;;;;10.60;99.90;;;;;;4994704;28;19940;-85
2022/04/08 14:24:05;;;;;;;;;;;10.60;99.90;;;;;;4994540;28;19969;-85